Terminal Aerodrome Forecast
Issued by NWS Knoxville/Tri Cities, TN

Home | Current Version | Previous Version | Text Only | Print | Product List | Glossary On
Versions: 1 2 3 4 5 6 7 8 9 10 11 12 13 14 15 16 17 18 19 20 21 22 23 24 25 26 27 28 29 30 31 32 33 34 35 36
000
FTUS44 KMRX 130527
TAFTYS
TAF
KTYS 130527Z 1306/1406 03003KT P6SM VCSH OVC040
     FM130900 VRB02KT P6SM OVC030
     FM131600 03003KT 5SM BR VCSH SCT010 OVC020
     FM131800 VRB03KT 3SM -RA BR SCT005 OVC010
     FM132300 20003KT 2SM -RA BR OVC008=

USA.gov is the U.S. government's official web portal to all federal, state and local government web resources and services.